Phu Quoc Airport
VVPQ : now visible

Airfield :











YOU CAN JOIN US ON...

 
LOGIN :

Register | Disclaimer

   EN    FR    IT 

 









Legend :    VFR   Marginal VFR   IFR   Intensive IFR   Very Intensive IFR
Visi :
Ceiling :
>= 8 km
>= 3000ft
5 to 8 km
1000 to 3000 ft
1500m to 5 km
500 to 1000 ft
800 to 1500m
200 to 500 ft
< 800m
< 200 ft
Symbols :   Thunderstorms  Fog  Heavy snow  Heavy precipitations  Wind > 20 kt






- Airport Elevation : 23 ft
- IATA code : PQC


VVPQ - Phu Quoc

CURRENT METAR :
  • 281630Z VRB01KT 9999 SCT015 SCT040 24/23 Q1009 NOSIG

EXPIRED METARs :
  • 281600Z VRB01KT 9999 TS SCT015 FEW017CB SCT040 24/23 Q1009 NOSIG CB/W
  • 281530Z 27004KT 9000 -TSRA SCT015 FEW017CB SCT040 25/23 Q1010 NOSIG CB/W
  • 281500Z 28004KT 8000 -TSRA SCT015 FEW017CB SCT040 25/23 Q1010 NOSIG CB/S/NE
  • 281430Z 07005KT 8000 -TSRA SCT015 FEW017CB SCT040 25/24 Q1010 NOSIG CB/S/NE
  • 281400Z 35006KT 8000 -TSRA SCT015 FEW017CB SCT040 26/24 Q1009 NOSIG CB/S

TAF TAF VVPQ
Valid from the 28 at 12:00 until the 29 at 12:00 UTC


281100Z 2812/2912 VRB03KT 9999 SCT015 SCT040
BECMG 2901/2902 09010KT



MET'MAP, your aeronautical weather chart ! - Copyright ORBIFLY December 2007 - Disclaimer

ORBIFLY MET'MAP TEAM :

Programming & Development : Alexandra Zaïnal
Concept & original design : Baudouin d'Aumeries
Assistance for programming : Marc-Olivier Méhu
Technical & hardware support : Manuel Goepfert

Contact : metmap@orbifly.com




SOURCES & CREDITS :

   NOAA       Earth
Advisory